sensor_id;sensor_type;location;lat;lon;timestamp;P1;durP1;ratioP1;P2;durP2;ratioP2
37349;SDS011;23231;52.358;4.926;2023-03-03T00:02:52;12.80;;;6.10;;
37349;SDS011;23231;52.358;4.926;2023-03-03T00:07:52;12.93;;;6.00;;
37349;SDS011;23231;52.358;4.926;2023-03-03T00:12:53;12.30;;;5.80;;
37349;SDS011;23231;52.358;4.926;2023-03-03T00:17:53;10.90;;;5.03;;
37349;SDS011;23231;52.358;4.926;2023-03-03T00:22:54;11.87;;;5.63;;
37349;SDS011;23231;52.358;4.926;2023-03-03T00:27:55;12.47;;;4.90;;
37349;SDS011;23231;52.358;4.926;2023-03-03T00:33:00;10.38;;;4.60;;
37349;SDS011;23231;52.358;4.926;2023-03-03T00:38:09;10.57;;;5.90;;
37349;SDS011;23231;52.358;4.926;2023-03-03T00:43:19;14.87;;;4.80;;
37349;SDS011;23231;52.358;4.926;2023-03-03T00:48:27;10.37;;;5.00;;
37349;SDS011;23231;52.358;4.926;2023-03-03T00:53:30;10.93;;;4.57;;
37349;SDS011;23231;52.358;4.926;2023-03-03T00:58:30;9.43;;;4.07;;
37349;SDS011;23231;52.358;4.926;2023-03-03T01:03:30;8.63;;;4.30;;
37349;SDS011;23231;52.358;4.926;2023-03-03T01:08:31;8.90;;;4.23;;
37349;SDS011;23231;52.358;4.926;2023-03-03T01:13:32;8.43;;;4.17;;
37349;SDS011;23231;52.358;4.926;2023-03-03T01:18:34;9.97;;;3.90;;
37349;SDS011;23231;52.358;4.926;2023-03-03T01:23:34;8.63;;;3.93;;
37349;SDS011;23231;52.358;4.926;2023-03-03T01:28:35;10.37;;;4.47;;
37349;SDS011;23231;52.358;4.926;2023-03-03T01:33:36;11.23;;;4.00;;
37349;SDS011;23231;52.358;4.926;2023-03-03T01:38:37;8.17;;;3.80;;
37349;SDS011;23231;52.358;4.926;2023-03-03T01:43:42;7.47;;;3.73;;
37349;SDS011;23231;52.358;4.926;2023-03-03T01:48:47;7.80;;;4.00;;
37349;SDS011;23231;52.358;4.926;2023-03-03T01:53:54;6.83;;;3.60;;
37349;SDS011;23231;52.358;4.926;2023-03-03T01:59:01;11.10;;;5.60;;
37349;SDS011;23231;52.358;4.926;2023-03-03T02:04:04;19.83;;;8.77;;
37349;SDS011;23231;52.358;4.926;2023-03-03T02:09:13;19.97;;;9.53;;
37349;SDS011;23231;52.358;4.926;2023-03-03T02:14:17;31.33;;;12.87;;
37349;SDS011;23231;52.358;4.926;2023-03-03T02:19:42;29.40;;;12.50;;
37349;SDS011;23231;52.358;4.926;2023-03-03T02:24:52;29.30;;;13.77;;
37349;SDS011;23231;52.358;4.926;2023-03-03T02:29:55;26.93;;;12.90;;
37349;SDS011;23231;52.358;4.926;2023-03-03T02:34:57;26.60;;;12.73;;
37349;SDS011;23231;52.358;4.926;2023-03-03T02:39:57;29.13;;;12.83;;
37349;SDS011;23231;52.358;4.926;2023-03-03T02:44:58;27.17;;;12.03;;
37349;SDS011;23231;52.358;4.926;2023-03-03T02:49:58;24.40;;;12.07;;
37349;SDS011;23231;52.358;4.926;2023-03-03T02:54:59;26.37;;;11.30;;
37349;SDS011;23231;52.358;4.926;2023-03-03T02:59:59;24.97;;;11.63;;
37349;SDS011;23231;52.358;4.926;2023-03-03T03:05:00;20.27;;;8.87;;
37349;SDS011;23231;52.358;4.926;2023-03-03T03:10:00;23.17;;;10.60;;
37349;SDS011;23231;52.358;4.926;2023-03-03T03:15:00;21.77;;;10.10;;
37349;SDS011;23231;52.358;4.926;2023-03-03T03:20:01;19.57;;;10.37;;
37349;SDS011;23231;52.358;4.926;2023-03-03T03:25:01;27.07;;;10.37;;
37349;SDS011;23231;52.358;4.926;2023-03-03T03:30:02;21.80;;;10.30;;
37349;SDS011;23231;52.358;4.926;2023-03-03T03:35:02;21.60;;;10.57;;
37349;SDS011;23231;52.358;4.926;2023-03-03T03:40:03;20.90;;;10.03;;
37349;SDS011;23231;52.358;4.926;2023-03-03T03:45:05;19.63;;;8.93;;
37349;SDS011;23231;52.358;4.926;2023-03-03T03:50:06;20.87;;;9.77;;
37349;SDS011;23231;52.358;4.926;2023-03-03T03:55:07;21.70;;;9.37;;
37349;SDS011;23231;52.358;4.926;2023-03-03T04:00:08;19.23;;;9.70;;
37349;SDS011;23231;52.358;4.926;2023-03-03T04:05:10;15.90;;;8.30;;
37349;SDS011;23231;52.358;4.926;2023-03-03T04:10:10;23.00;;;9.77;;
37349;SDS011;23231;52.358;4.926;2023-03-03T04:15:11;22.50;;;10.47;;
37349;SDS011;23231;52.358;4.926;2023-03-03T04:20:13;18.47;;;9.20;;
37349;SDS011;23231;52.358;4.926;2023-03-03T04:25:15;22.40;;;9.57;;
37349;SDS011;23231;52.358;4.926;2023-03-03T04:30:16;17.43;;;8.53;;
37349;SDS011;23231;52.358;4.926;2023-03-03T04:35:16;18.80;;;9.63;;
37349;SDS011;23231;52.358;4.926;2023-03-03T04:40:17;20.73;;;9.27;;
37349;SDS011;23231;52.358;4.926;2023-03-03T04:45:17;20.57;;;9.67;;
37349;SDS011;23231;52.358;4.926;2023-03-03T04:50:18;19.27;;;9.07;;
37349;SDS011;23231;52.358;4.926;2023-03-03T04:55:18;19.27;;;8.93;;
37349;SDS011;23231;52.358;4.926;2023-03-03T05:00:19;21.17;;;9.53;;
37349;SDS011;23231;52.358;4.926;2023-03-03T05:05:19;21.40;;;9.23;;
37349;SDS011;23231;52.358;4.926;2023-03-03T05:10:20;19.60;;;8.80;;
37349;SDS011;23231;52.358;4.926;2023-03-03T05:15:20;16.30;;;9.23;;
37349;SDS011;23231;52.358;4.926;2023-03-03T05:20:21;18.20;;;9.73;;
37349;SDS011;23231;52.358;4.926;2023-03-03T05:25:21;15.70;;;9.30;;
37349;SDS011;23231;52.358;4.926;2023-03-03T05:30:22;17.03;;;9.50;;
37349;SDS011;23231;52.358;4.926;2023-03-03T05:35:22;20.33;;;9.53;;
37349;SDS011;23231;52.358;4.926;2023-03-03T05:40:26;16.07;;;8.87;;
37349;SDS011;23231;52.358;4.926;2023-03-03T05:45:26;16.90;;;9.07;;
37349;SDS011;23231;52.358;4.926;2023-03-03T05:50:27;15.40;;;8.47;;
37349;SDS011;23231;52.358;4.926;2023-03-03T05:55:27;17.40;;;8.40;;
37349;SDS011;23231;52.358;4.926;2023-03-03T06:00:28;17.00;;;9.10;;
37349;SDS011;23231;52.358;4.926;2023-03-03T06:05:28;16.97;;;9.10;;
37349;SDS011;23231;52.358;4.926;2023-03-03T06:10:29;18.60;;;9.97;;
37349;SDS011;23231;52.358;4.926;2023-03-03T06:15:29;16.10;;;8.97;;
37349;SDS011;23231;52.358;4.926;2023-03-03T06:20:29;16.17;;;8.73;;
37349;SDS011;23231;52.358;4.926;2023-03-03T06:25:31;18.00;;;9.33;;
37349;SDS011;23231;52.358;4.926;2023-03-03T06:30:34;17.67;;;8.73;;
37349;SDS011;23231;52.358;4.926;2023-03-03T06:35:35;19.13;;;9.13;;
37349;SDS011;23231;52.358;4.926;2023-03-03T06:40:35;18.73;;;9.83;;
37349;SDS011;23231;52.358;4.926;2023-03-03T06:45:36;16.70;;;8.97;;
37349;SDS011;23231;52.358;4.926;2023-03-03T06:50:37;17.33;;;8.13;;
37349;SDS011;23231;52.358;4.926;2023-03-03T06:55:38;15.00;;;8.00;;
37349;SDS011;23231;52.358;4.926;2023-03-03T07:00:43;14.47;;;7.47;;
37349;SDS011;23231;52.358;4.926;2023-03-03T07:05:54;14.03;;;8.13;;
37349;SDS011;23231;52.358;4.926;2023-03-03T07:10:54;12.50;;;7.97;;
37349;SDS011;23231;52.358;4.926;2023-03-03T07:15:55;11.47;;;7.27;;
37349;SDS011;23231;52.358;4.926;2023-03-03T07:20:58;12.80;;;6.83;;
37349;SDS011;23231;52.358;4.926;2023-03-03T07:25:59;12.77;;;7.13;;
37349;SDS011;23231;52.358;4.926;2023-03-03T07:30:59;13.10;;;7.20;;
37349;SDS011;23231;52.358;4.926;2023-03-03T07:35:59;12.67;;;7.00;;
37349;SDS011;23231;52.358;4.926;2023-03-03T07:41:02;13.73;;;7.10;;
37349;SDS011;23231;52.358;4.926;2023-03-03T07:51:20;15.63;;;8.23;;
37349;SDS011;23231;52.358;4.926;2023-03-03T07:56:28;14.43;;;8.33;;
37349;SDS011;23231;52.358;4.926;2023-03-03T08:01:34;12.57;;;7.95;;
37349;SDS011;23231;52.358;4.926;2023-03-03T08:16:53;12.45;;;8.10;;
37349;SDS011;23231;52.358;4.926;2023-03-03T08:21:59;14.10;;;8.10;;
37349;SDS011;23231;52.358;4.926;2023-03-03T08:27:06;14.30;;;7.38;;
37349;SDS011;23231;52.358;4.926;2023-03-03T08:32:06;12.47;;;7.90;;
37349;SDS011;23231;52.358;4.926;2023-03-03T08:37:06;14.37;;;7.93;;
37349;SDS011;23231;52.358;4.926;2023-03-03T08:42:07;11.48;;;6.93;;
37349;SDS011;23231;52.358;4.926;2023-03-03T08:47:07;10.05;;;6.85;;
37349;SDS011;23231;52.358;4.926;2023-03-03T08:52:08;13.32;;;7.55;;
37349;SDS011;23231;52.358;4.926;2023-03-03T08:57:08;15.52;;;7.25;;
37349;SDS011;23231;52.358;4.926;2023-03-03T09:02:08;13.32;;;6.53;;
37349;SDS011;23231;52.358;4.926;2023-03-03T09:07:09;9.07;;;5.30;;
37349;SDS011;23231;52.358;4.926;2023-03-03T09:12:17;10.68;;;6.10;;
37349;SDS011;23231;52.358;4.926;2023-03-03T09:17:27;9.88;;;6.13;;
37349;SDS011;23231;52.358;4.926;2023-03-03T09:22:31;11.07;;;6.03;;
37349;SDS011;23231;52.358;4.926;2023-03-03T09:27:35;9.48;;;5.22;;
37349;SDS011;23231;52.358;4.926;2023-03-03T09:32:37;8.52;;;5.03;;
37349;SDS011;23231;52.358;4.926;2023-03-03T09:37:42;8.15;;;4.20;;
37349;SDS011;23231;52.358;4.926;2023-03-03T09:48:43;9.23;;;4.03;;
37349;SDS011;23231;52.358;4.926;2023-03-03T09:59:32;5.38;;;3.47;;
37349;SDS011;23231;52.358;4.926;2023-03-03T10:04:43;6.60;;;3.13;;
37349;SDS011;23231;52.358;4.926;2023-03-03T10:37:23;8.43;;;4.00;;
37349;SDS011;23231;52.358;4.926;2023-03-03T10:48:09;6.32;;;2.30;;
37349;SDS011;23231;52.358;4.926;2023-03-03T11:09:07;2.67;;;1.65;;
37349;SDS011;23231;52.358;4.926;2023-03-03T11:40:01;8.13;;;2.35;;
37349;SDS011;23231;52.358;4.926;2023-03-03T11:45:18;4.97;;;2.00;;
37349;SDS011;23231;52.358;4.926;2023-03-03T12:00:31;3.90;;;1.90;;
37349;SDS011;23231;52.358;4.926;2023-03-03T12:32:36;4.78;;;2.00;;
37349;SDS011;23231;52.358;4.926;2023-03-03T12:48:37;5.78;;;1.80;;
37349;SDS011;23231;52.358;4.926;2023-03-03T12:53:47;4.97;;;1.93;;
37349;SDS011;23231;52.358;4.926;2023-03-03T12:59:23;3.28;;;1.50;;
37349;SDS011;23231;52.358;4.926;2023-03-03T13:10:01;4.88;;;2.45;;
37349;SDS011;23231;52.358;4.926;2023-03-03T13:30:32;6.05;;;2.00;;
37349;SDS011;23231;52.358;4.926;2023-03-03T13:46:31;4.57;;;1.50;;
37349;SDS011;23231;52.358;4.926;2023-03-03T14:13:10;6.57;;;1.87;;
37349;SDS011;23231;52.358;4.926;2023-03-03T14:28:49;5.72;;;2.00;;
37349;SDS011;23231;52.358;4.926;2023-03-03T14:34:02;5.68;;;2.15;;
37349;SDS011;23231;52.358;4.926;2023-03-03T14:44:35;4.22;;;1.50;;
37349;SDS011;23231;52.358;4.926;2023-03-03T14:49:37;4.75;;;1.50;;
37349;SDS011;23231;52.358;4.926;2023-03-03T14:54:38;5.90;;;2.10;;
37349;SDS011;23231;52.358;4.926;2023-03-03T14:59:55;7.07;;;1.60;;
37349;SDS011;23231;52.358;4.926;2023-03-03T15:05:14;5.72;;;1.90;;
37349;SDS011;23231;52.358;4.926;2023-03-03T15:10:29;5.72;;;2.15;;
37349;SDS011;23231;52.358;4.926;2023-03-03T15:15:30;11.17;;;3.20;;
37349;SDS011;23231;52.358;4.926;2023-03-03T15:25:44;6.97;;;2.30;;
37349;SDS011;23231;52.358;4.926;2023-03-03T15:36:07;6.05;;;1.55;;
37349;SDS011;23231;52.358;4.926;2023-03-03T15:41:18;8.55;;;2.10;;
37349;SDS011;23231;52.358;4.926;2023-03-03T15:46:27;4.93;;;2.20;;
37349;SDS011;23231;52.358;4.926;2023-03-03T15:57:49;10.00;;;2.28;;
37349;SDS011;23231;52.358;4.926;2023-03-03T16:03:08;12.05;;;2.20;;
37349;SDS011;23231;52.358;4.926;2023-03-03T16:08:11;5.68;;;1.83;;
37349;SDS011;23231;52.358;4.926;2023-03-03T16:13:21;9.52;;;2.05;;
37349;SDS011;23231;52.358;4.926;2023-03-03T16:18:47;9.40;;;2.00;;
37349;SDS011;23231;52.358;4.926;2023-03-03T16:23:55;12.85;;;2.38;;
37349;SDS011;23231;52.358;4.926;2023-03-03T16:34:29;9.70;;;1.95;;
37349;SDS011;23231;52.358;4.926;2023-03-03T16:44:46;12.75;;;2.58;;
37349;SDS011;23231;52.358;4.926;2023-03-03T16:56:05;14.50;;;2.38;;
37349;SDS011;23231;52.358;4.926;2023-03-03T17:12:33;12.38;;;2.35;;
37349;SDS011;23231;52.358;4.926;2023-03-03T17:28:11;11.45;;;3.28;;
37349;SDS011;23231;52.358;4.926;2023-03-03T17:33:22;15.90;;;2.40;;
37349;SDS011;23231;52.358;4.926;2023-03-03T17:38:50;13.35;;;2.35;;
37349;SDS011;23231;52.358;4.926;2023-03-03T17:43:57;16.38;;;2.67;;
37349;SDS011;23231;52.358;4.926;2023-03-03T17:49:08;13.25;;;3.05;;
37349;SDS011;23231;52.358;4.926;2023-03-03T18:21:15;16.80;;;2.65;;
37349;SDS011;23231;52.358;4.926;2023-03-03T18:37:06;11.77;;;2.80;;
37349;SDS011;23231;52.358;4.926;2023-03-03T19:03:23;15.50;;;3.30;;
37349;SDS011;23231;52.358;4.926;2023-03-03T19:19:18;15.95;;;2.83;;
37349;SDS011;23231;52.358;4.926;2023-03-03T19:29:41;18.07;;;3.20;;
37349;SDS011;23231;52.358;4.926;2023-03-03T20:00:46;24.23;;;3.53;;
37349;SDS011;23231;52.358;4.926;2023-03-03T20:06:10;16.45;;;3.17;;
37349;SDS011;23231;52.358;4.926;2023-03-03T20:16:40;15.02;;;3.47;;
37349;SDS011;23231;52.358;4.926;2023-03-03T20:26:56;15.02;;;3.25;;
37349;SDS011;23231;52.358;4.926;2023-03-03T20:32:16;17.45;;;3.50;;
37349;SDS011;23231;52.358;4.926;2023-03-03T21:03:45;13.57;;;2.90;;
37349;SDS011;23231;52.358;4.926;2023-03-03T21:13:49;14.77;;;3.42;;
37349;SDS011;23231;52.358;4.926;2023-03-03T21:19:03;17.10;;;3.38;;
37349;SDS011;23231;52.358;4.926;2023-03-03T21:24:06;17.25;;;3.17;;
37349;SDS011;23231;52.358;4.926;2023-03-03T21:34:29;20.15;;;3.63;;
37349;SDS011;23231;52.358;4.926;2023-03-03T21:39:34;19.45;;;3.38;;
37349;SDS011;23231;52.358;4.926;2023-03-03T21:49:48;17.23;;;3.03;;
37349;SDS011;23231;52.358;4.926;2023-03-03T21:54:50;15.02;;;2.92;;
37349;SDS011;23231;52.358;4.926;2023-03-03T21:59:51;12.45;;;2.65;;
37349;SDS011;23231;52.358;4.926;2023-03-03T22:04:52;19.35;;;3.85;;
37349;SDS011;23231;52.358;4.926;2023-03-03T22:09:52;13.35;;;3.25;;
37349;SDS011;23231;52.358;4.926;2023-03-03T22:14:53;16.88;;;3.17;;
37349;SDS011;23231;52.358;4.926;2023-03-03T22:19:53;11.10;;;2.50;;
37349;SDS011;23231;52.358;4.926;2023-03-03T22:24:54;15.07;;;3.00;;
37349;SDS011;23231;52.358;4.926;2023-03-03T22:29:54;16.98;;;3.15;;
37349;SDS011;23231;52.358;4.926;2023-03-03T22:34:55;15.13;;;2.92;;
37349;SDS011;23231;52.358;4.926;2023-03-03T22:39:55;12.70;;;2.30;;
37349;SDS011;23231;52.358;4.926;2023-03-03T22:44:56;12.75;;;2.90;;
37349;SDS011;23231;52.358;4.926;2023-03-03T22:49:56;15.90;;;3.08;;
37349;SDS011;23231;52.358;4.926;2023-03-03T22:54:57;22.13;;;2.92;;
37349;SDS011;23231;52.358;4.926;2023-03-03T22:59:58;20.90;;;3.05;;
37349;SDS011;23231;52.358;4.926;2023-03-03T23:04:59;14.70;;;2.42;;
37349;SDS011;23231;52.358;4.926;2023-03-03T23:10:00;13.93;;;3.20;;
37349;SDS011;23231;52.358;4.926;2023-03-03T23:15:02;13.48;;;2.72;;
37349;SDS011;23231;52.358;4.926;2023-03-03T23:20:04;13.77;;;2.40;;
37349;SDS011;23231;52.358;4.926;2023-03-03T23:25:07;10.77;;;2.30;;
37349;SDS011;23231;52.358;4.926;2023-03-03T23:30:08;17.27;;;2.30;;
37349;SDS011;23231;52.358;4.926;2023-03-03T23:35:10;10.82;;;2.58;;
37349;SDS011;23231;52.358;4.926;2023-03-03T23:40:11;8.80;;;2.10;;
37349;SDS011;23231;52.358;4.926;2023-03-03T23:45:12;13.27;;;2.40;;
37349;SDS011;23231;52.358;4.926;2023-03-03T23:50:13;11.75;;;2.40;;
37349;SDS011;23231;52.358;4.926;2023-03-03T23:55:14;14.25;;;2.72;;
